createdAt,value
2017-10-27T00:02:20.731Z,42.30
2017-10-27T00:04:48.619Z,42.40
2017-10-27T00:07:17.209Z,42.20
2017-10-27T00:09:45.904Z,42.30
2017-10-27T00:12:13.808Z,42.20
2017-10-27T00:14:41.637Z,42.20
2017-10-27T00:17:09.530Z,41.80
2017-10-27T00:19:37.384Z,41.80
2017-10-27T00:22:05.183Z,41.80
2017-10-27T00:24:33.067Z,41.70
2017-10-27T00:27:00.905Z,41.60
2017-10-27T00:29:29.019Z,41.30
2017-10-27T00:31:57.654Z,41.10
2017-10-27T00:34:25.468Z,41.00
2017-10-27T00:36:54.052Z,40.80
2017-10-27T00:39:22.688Z,41.10
2017-10-27T00:41:50.512Z,41.10
2017-10-27T00:44:19.156Z,41.40
2017-10-27T00:46:47.080Z,40.70
2017-10-27T00:49:15.051Z,40.80
2017-10-27T00:51:43.067Z,40.90
2017-10-27T00:54:10.933Z,40.90
2017-10-27T00:56:39.858Z,41.40
2017-10-27T00:59:08.804Z,41.40
2017-10-27T01:01:37.421Z,41.60
2017-10-27T01:04:06.023Z,41.60
2017-10-27T01:06:34.683Z,41.30
2017-10-27T01:09:03.558Z,41.30
2017-10-27T01:11:31.431Z,41.60
2017-10-27T01:14:00.222Z,41.70
2017-10-27T01:16:28.178Z,41.80
2017-10-27T01:18:56.107Z,41.80
2017-10-27T01:21:24.065Z,41.70
2017-10-27T01:23:52.000Z,42.10
2017-10-27T01:26:19.815Z,42.20
2017-10-27T01:28:47.918Z,42.10
2017-10-27T01:31:15.984Z,42.20
2017-10-27T01:33:43.904Z,42.40
2017-10-27T01:36:11.845Z,42.40
2017-10-27T01:38:39.805Z,42.50
2017-10-27T01:41:07.780Z,42.60
2017-10-27T01:43:35.712Z,42.70
2017-10-27T01:46:03.695Z,42.60
2017-10-27T01:48:31.676Z,42.90
2017-10-27T01:50:59.797Z,41.80
2017-10-27T01:53:27.860Z,41.90
2017-10-27T01:55:55.944Z,42.10
2017-10-27T01:58:23.880Z,41.90
2017-10-27T02:00:52.906Z,40.90
2017-10-27T02:03:20.799Z,40.90
2017-10-27T02:05:48.724Z,40.40
2017-10-27T02:08:17.469Z,40.20
2017-10-27T02:10:45.378Z,40.20
2017-10-27T02:13:14.021Z,39.90
2017-10-27T02:15:41.989Z,39.80
2017-10-27T02:18:09.906Z,39.60
2017-10-27T02:20:37.909Z,39.70
2017-10-27T02:23:05.854Z,40.20
2017-10-27T02:25:33.792Z,39.20
2017-10-27T02:28:02.488Z,38.90
2017-10-27T02:30:31.178Z,39.60
2017-10-27T02:33:00.155Z,39.80
2017-10-27T02:35:28.911Z,39.50
2017-10-27T02:37:56.966Z,39.50
2017-10-27T02:40:24.869Z,39.70
2017-10-27T02:42:52.796Z,39.50
2017-10-27T02:45:20.730Z,39.30
2017-10-27T02:47:48.596Z,39.60
2017-10-27T02:50:17.242Z,39.70
2017-10-27T02:52:45.108Z,39.70
2017-10-27T02:55:12.940Z,39.70
2017-10-27T02:57:40.795Z,39.60
2017-10-27T03:00:08.754Z,39.80
2017-10-27T03:02:36.663Z,40.30
2017-10-27T03:05:04.507Z,40.40
2017-10-27T03:07:32.385Z,40.60
2017-10-27T03:10:00.236Z,40.80
2017-10-27T03:12:28.190Z,40.60
2017-10-27T03:14:56.174Z,40.80
2017-10-27T03:17:24.098Z,41.10
2017-10-27T03:19:52.725Z,41.30
2017-10-27T03:22:20.917Z,41.90
2017-10-27T03:24:48.784Z,41.20
2017-10-27T03:27:16.879Z,41.30
2017-10-27T03:29:44.740Z,41.40
2017-10-27T03:32:12.938Z,41.50
2017-10-27T03:34:41.015Z,41.40
2017-10-27T03:37:09.721Z,40.30
2017-10-27T03:39:37.564Z,40.30
2017-10-27T03:42:07.333Z,38.70
2017-10-27T03:44:35.189Z,38.70
2017-10-27T03:47:03.229Z,38.30
2017-10-27T03:49:31.165Z,36.90
2017-10-27T03:51:59.047Z,36.70
2017-10-27T03:54:27.663Z,36.70
2017-10-27T03:56:55.730Z,36.70
2017-10-27T03:59:23.700Z,36.60
2017-10-27T04:01:51.601Z,36.50
2017-10-27T04:04:19.439Z,36.00
2017-10-27T04:06:47.336Z,35.30
2017-10-27T04:09:16.213Z,35.60
2017-10-27T04:11:44.120Z,35.90
2017-10-27T04:14:12.060Z,35.70
2017-10-27T04:16:39.983Z,36.00
2017-10-27T04:19:07.832Z,36.30
2017-10-27T04:21:36.457Z,36.50
2017-10-27T04:24:04.364Z,36.40
2017-10-27T04:26:32.248Z,36.40
2017-10-27T04:29:01.142Z,36.60
2017-10-27T04:31:29.800Z,36.50
2017-10-27T04:33:57.724Z,36.50
2017-10-27T04:36:25.583Z,36.20
2017-10-27T04:38:53.452Z,35.50
2017-10-27T04:41:21.356Z,35.50
2017-10-27T04:43:49.251Z,34.80
2017-10-27T04:46:17.077Z,35.00
2017-10-27T04:48:44.989Z,35.20
2017-10-27T04:51:13.581Z,34.00
2017-10-27T04:53:42.417Z,34.60
2017-10-27T04:56:11.053Z,34.60
2017-10-27T04:58:39.636Z,35.10
2017-10-27T05:01:08.272Z,35.00
2017-10-27T05:03:36.133Z,35.00
2017-10-27T05:06:03.960Z,35.20
2017-10-27T05:08:32.727Z,35.40
2017-10-27T05:11:01.383Z,35.90
2017-10-27T05:13:29.665Z,35.30
2017-10-27T05:15:57.503Z,35.50
2017-10-27T05:18:30.820Z,35.60
2017-10-27T05:21:04.272Z,36.30
2017-10-27T05:23:38.033Z,36.50
2017-10-27T05:26:05.981Z,36.40
2017-10-27T05:28:33.843Z,37.00
2017-10-27T05:31:01.672Z,36.90
2017-10-27T05:33:30.270Z,37.50
2017-10-27T05:35:58.178Z,37.50
2017-10-27T05:38:26.087Z,37.30
2017-10-27T05:40:54.732Z,37.50
2017-10-27T05:43:22.619Z,37.50
2017-10-27T05:45:51.277Z,37.70
2017-10-27T05:48:20.199Z,37.70
2017-10-27T05:50:48.782Z,37.70
2017-10-27T05:53:17.514Z,37.60
2017-10-27T05:55:45.345Z,37.60
2017-10-27T05:58:13.980Z,36.90
2017-10-27T06:00:41.825Z,36.80
2017-10-27T06:03:10.900Z,36.90
2017-10-27T06:05:40.092Z,37.30
2017-10-27T06:08:08.025Z,36.90
2017-10-27T06:10:36.724Z,37.60
2017-10-27T06:13:05.574Z,38.20
2017-10-27T06:15:33.522Z,38.50
2017-10-27T06:18:01.387Z,38.20
2017-10-27T06:20:29.289Z,38.00
2017-10-27T06:22:57.349Z,37.40
2017-10-27T06:25:25.205Z,36.90
2017-10-27T06:27:53.132Z,36.40
2017-10-27T06:30:21.755Z,36.30
2017-10-27T06:32:49.604Z,36.30
2017-10-27T06:35:17.424Z,36.20
2017-10-27T06:37:45.270Z,36.40
2017-10-27T06:40:14.064Z,36.60
2017-10-27T06:42:41.885Z,36.70
2017-10-27T06:45:09.729Z,36.50
2017-10-27T06:47:38.478Z,37.60
2017-10-27T06:50:06.401Z,37.60
2017-10-27T06:52:34.228Z,37.90
2017-10-27T06:55:02.179Z,38.30
2017-10-27T06:57:30.036Z,38.80
2017-10-27T06:59:58.024Z,39.10
2017-10-27T07:02:25.995Z,39.20
2017-10-27T07:04:54.023Z,39.40
2017-10-27T07:07:22.731Z,40.00
2017-10-27T07:09:50.589Z,39.90
2017-10-27T07:12:18.414Z,40.50
2017-10-27T07:14:47.057Z,41.10
2017-10-27T07:17:14.887Z,41.00
2017-10-27T07:19:42.695Z,41.40
2017-10-27T07:22:10.621Z,41.60
2017-10-27T07:24:38.491Z,42.40
2017-10-27T07:27:06.436Z,42.80
2017-10-27T07:29:34.409Z,43.00
2017-10-27T07:32:02.344Z,43.00
2017-10-27T07:34:30.495Z,42.70
2017-10-27T07:36:58.457Z,42.20
2017-10-27T07:39:26.515Z,41.60
2017-10-27T07:41:54.515Z,41.50
2017-10-27T07:44:22.434Z,41.60
2017-10-27T07:46:50.345Z,41.20
2017-10-27T07:49:18.306Z,40.90
2017-10-27T07:51:46.325Z,41.10
2017-10-27T07:54:14.307Z,41.20
2017-10-27T07:56:42.226Z,41.00
2017-10-27T07:59:10.399Z,40.20
2017-10-27T08:01:38.657Z,39.70
2017-10-27T08:04:06.716Z,39.40
2017-10-27T08:06:34.644Z,38.70
2017-10-27T08:09:03.458Z,38.40
2017-10-27T08:11:31.713Z,38.40
2017-10-27T08:14:00.380Z,38.10
2017-10-27T08:16:28.390Z,38.00
2017-10-27T08:18:56.347Z,37.80
2017-10-27T08:21:24.368Z,36.50
2017-10-27T08:23:52.300Z,36.60
2017-10-27T08:26:20.349Z,38.00
2017-10-27T08:28:48.267Z,38.30
2017-10-27T08:31:16.179Z,38.90
2017-10-27T08:33:44.852Z,38.30
2017-10-27T08:36:13.648Z,38.30
2017-10-27T08:38:42.417Z,38.10
2017-10-27T08:41:10.360Z,38.10
2017-10-27T08:43:38.305Z,37.20
2017-10-27T08:46:07.043Z,37.10
2017-10-27T08:48:34.966Z,36.90
2017-10-27T08:51:03.688Z,37.00
2017-10-27T08:53:32.519Z,37.60
2017-10-27T08:56:00.431Z,37.50
2017-10-27T08:58:30.021Z,36.40
2017-10-27T09:00:57.908Z,36.10
2017-10-27T09:03:25.795Z,36.40
2017-10-27T09:05:53.770Z,35.80
2017-10-27T09:08:22.750Z,36.70
2017-10-27T09:10:51.488Z,36.60
2017-10-27T09:13:19.405Z,36.60
2017-10-27T09:15:47.458Z,36.10
2017-10-27T09:18:16.935Z,36.10
2017-10-27T09:20:45.451Z,35.40
2017-10-27T09:23:14.440Z,36.50
2017-10-27T09:25:42.498Z,36.40
2017-10-27T09:28:11.974Z,37.20
2017-10-27T09:30:40.756Z,38.40
2017-10-27T09:33:08.729Z,37.70
2017-10-27T09:35:36.667Z,37.80
2017-10-27T09:38:04.667Z,37.80
2017-10-27T09:40:32.543Z,38.50
2017-10-27T09:43:00.429Z,37.60
2017-10-27T09:45:28.553Z,37.80
2017-10-27T09:47:57.338Z,38.10
2017-10-27T09:50:25.590Z,38.00
2017-10-27T09:52:53.484Z,38.20
2017-10-27T09:55:22.239Z,39.90
2017-10-27T09:57:50.160Z,39.90
2017-10-27T10:00:18.083Z,40.00
2017-10-27T10:02:46.023Z,39.90
2017-10-27T10:05:13.976Z,40.20
2017-10-27T10:07:42.351Z,40.00
2017-10-27T10:10:10.465Z,40.50
2017-10-27T10:12:38.419Z,40.70
2017-10-27T10:15:06.345Z,40.90
2017-10-27T10:17:34.269Z,41.30
2017-10-27T10:20:02.202Z,41.50
2017-10-27T10:22:30.120Z,41.70
2017-10-27T10:24:58.858Z,42.20
2017-10-27T10:27:26.792Z,42.10
2017-10-27T10:30:01.546Z,45.20
2017-10-27T10:32:32.051Z,43.70
2017-10-27T10:35:00.151Z,45.50
2017-10-27T10:37:28.095Z,42.00
2017-10-27T10:39:56.267Z,46.00
2017-10-27T10:42:24.224Z,44.40
2017-10-27T10:44:53.032Z,45.20
2017-10-27T10:47:21.775Z,47.30
2017-10-27T10:49:50.639Z,47.20
2017-10-27T10:52:18.654Z,46.20
2017-10-27T10:54:47.486Z,46.70
2017-10-27T10:57:15.431Z,46.70
2017-10-27T10:59:43.394Z,44.70
2017-10-27T11:02:11.396Z,46.30
2017-10-27T11:04:39.324Z,44.80
2017-10-27T11:07:07.919Z,45.50
2017-10-27T11:09:35.886Z,45.50
2017-10-27T11:12:03.838Z,46.40
2017-10-27T11:14:32.589Z,47.40
2017-10-27T11:17:01.120Z,47.30
2017-10-27T11:19:29.268Z,49.90
2017-10-27T11:21:58.013Z,49.40
2017-10-27T11:24:25.932Z,49.40
2017-10-27T11:26:54.792Z,49.10
2017-10-27T11:29:22.754Z,49.00
2017-10-27T11:31:50.956Z,49.20
2017-10-27T11:34:19.700Z,49.90
2017-10-27T11:36:47.678Z,49.80
2017-10-27T11:39:15.675Z,48.50
2017-10-27T11:41:43.630Z,49.50
2017-10-27T11:44:11.475Z,50.10
2017-10-27T11:46:39.324Z,49.00
2017-10-27T11:49:07.308Z,48.80
2017-10-27T11:51:35.263Z,47.80
2017-10-27T11:54:03.779Z,48.60
2017-10-27T11:56:31.664Z,48.00
2017-10-27T11:58:59.526Z,48.10
2017-10-27T12:01:27.424Z,49.00
2017-10-27T12:03:55.281Z,49.10
2017-10-27T12:06:24.090Z,48.80
2017-10-27T12:08:52.141Z,48.80
2017-10-27T12:11:20.988Z,47.50
2017-10-27T12:13:48.963Z,47.50
2017-10-27T12:16:17.026Z,47.20
2017-10-27T12:18:44.953Z,47.90
2017-10-27T12:21:12.992Z,47.50
2017-10-27T12:23:41.770Z,48.40
2017-10-27T12:26:09.761Z,48.40
2017-10-27T12:28:37.736Z,46.90
2017-10-27T12:31:05.813Z,47.50
2017-10-27T12:33:33.787Z,48.00
2017-10-27T12:36:01.904Z,49.70
2017-10-27T12:38:29.850Z,51.20
2017-10-27T12:40:57.870Z,52.20
2017-10-27T12:43:26.642Z,53.20
2017-10-27T12:45:54.618Z,53.20
2017-10-27T12:48:23.257Z,53.20
2017-10-27T12:50:51.200Z,52.50
2017-10-27T12:53:19.830Z,52.90
2017-10-27T12:55:47.684Z,52.90
2017-10-27T12:58:15.566Z,53.90
2017-10-27T13:00:43.580Z,54.40
2017-10-27T13:03:11.505Z,53.90
2017-10-27T13:05:39.395Z,53.10
2017-10-27T13:08:07.292Z,52.80
2017-10-27T13:10:35.242Z,54.50
2017-10-27T13:13:03.886Z,56.50
2017-10-27T13:15:31.858Z,56.50
2017-10-27T13:17:59.906Z,57.00
2017-10-27T13:20:27.836Z,56.80
2017-10-27T13:22:56.719Z,57.50
2017-10-27T13:25:25.451Z,57.70
2017-10-27T13:28:10.922Z,57.70
2017-10-27T13:30:38.972Z,58.30
2017-10-27T13:33:06.988Z,58.60
2017-10-27T13:35:34.957Z,58.80
2017-10-27T13:38:02.871Z,59.30
2017-10-27T13:40:31.616Z,59.40
2017-10-27T13:42:59.795Z,59.50
2017-10-27T13:45:27.740Z,59.90
2017-10-27T13:47:55.745Z,60.20
2017-10-27T13:50:23.647Z,60.00
2017-10-27T13:52:51.527Z,60.80
2017-10-27T13:55:19.459Z,60.90
2017-10-27T13:57:48.210Z,61.70
2017-10-27T14:00:16.125Z,61.70
2017-10-27T14:02:45.394Z,62.10
2017-10-27T14:05:13.367Z,62.10
2017-10-27T14:07:44.464Z,62.60
2017-10-27T14:10:12.373Z,62.80
2017-10-27T14:12:40.524Z,62.90
2017-10-27T14:15:08.510Z,63.10
2017-10-27T14:17:36.586Z,63.10
2017-10-27T14:20:04.469Z,63.00
2017-10-27T14:22:33.117Z,63.00
2017-10-27T14:25:01.227Z,63.00
2017-10-27T14:27:29.223Z,63.50
2017-10-27T14:29:57.188Z,63.30
2017-10-27T14:32:25.059Z,64.00
2017-10-27T14:34:52.927Z,64.20
2017-10-27T14:37:20.791Z,64.00
2017-10-27T14:39:48.628Z,64.70
2017-10-27T14:42:17.575Z,64.10
2017-10-27T14:44:45.544Z,64.10
2017-10-27T14:47:13.429Z,64.10
2017-10-27T14:49:41.272Z,64.50
2017-10-27T14:52:09.177Z,65.40
2017-10-27T14:54:37.046Z,65.30
2017-10-27T14:57:04.990Z,65.40
2017-10-27T14:59:32.967Z,66.20
2017-10-27T15:02:01.620Z,65.80
2017-10-27T15:04:29.517Z,66.40
2017-10-27T15:06:57.812Z,66.90
2017-10-27T15:09:25.767Z,66.60
2017-10-27T15:11:53.742Z,66.50
2017-10-27T15:14:21.724Z,66.90
2017-10-27T15:16:49.574Z,66.50
2017-10-27T15:19:18.668Z,66.50
2017-10-27T15:21:46.612Z,66.00
2017-10-27T15:24:14.537Z,66.30
2017-10-27T15:26:43.208Z,66.90
2017-10-27T15:29:11.257Z,66.90
2017-10-27T15:31:39.365Z,66.90
2017-10-27T15:34:08.260Z,67.30
2017-10-27T15:36:37.082Z,67.40
2017-10-27T15:39:05.051Z,67.50
2017-10-27T15:41:33.103Z,67.20
2017-10-27T15:44:01.155Z,67.60
2017-10-27T15:46:29.744Z,68.00
2017-10-27T15:48:58.455Z,69.00
2017-10-27T15:51:26.699Z,68.90
2017-10-27T15:53:54.543Z,68.40
2017-10-27T15:56:22.948Z,68.90
2017-10-27T15:58:51.792Z,69.10
2017-10-27T16:01:19.877Z,69.10
2017-10-27T16:03:47.954Z,69.70
2017-10-27T16:06:16.605Z,70.30
2017-10-27T16:08:44.460Z,70.30
2017-10-27T16:11:12.461Z,70.10
2017-10-27T16:13:42.313Z,70.00
2017-10-27T16:16:11.216Z,70.40
2017-10-27T16:18:39.528Z,70.40
2017-10-27T16:21:07.449Z,70.80
2017-10-27T16:23:36.076Z,71.30
2017-10-27T16:26:04.167Z,71.30
2017-10-27T16:28:32.089Z,71.50
2017-10-27T16:31:00.000Z,71.70
2017-10-27T16:33:28.226Z,72.00
2017-10-27T16:35:57.155Z,72.00
2017-10-27T16:38:25.232Z,72.30
2017-10-27T16:40:53.071Z,72.20
2017-10-27T16:43:20.885Z,72.50
2017-10-27T16:45:48.855Z,72.50
2017-10-27T16:48:17.621Z,72.70
2017-10-27T16:50:45.463Z,72.70
2017-10-27T16:53:13.372Z,72.80
2017-10-27T16:55:41.329Z,73.00
2017-10-27T16:58:09.174Z,73.00
2017-10-27T17:00:37.116Z,72.90
2017-10-27T17:03:05.031Z,73.20
2017-10-27T17:05:32.939Z,73.20
2017-10-27T17:08:00.802Z,73.00
2017-10-27T17:10:29.447Z,73.10
2017-10-27T17:12:57.306Z,73.10
2017-10-27T17:15:25.420Z,72.70
2017-10-27T17:17:54.033Z,73.00
2017-10-27T17:20:21.933Z,73.00
2017-10-27T17:22:49.825Z,73.00
2017-10-27T17:25:19.119Z,72.80
2017-10-27T17:27:47.751Z,72.80
2017-10-27T17:30:15.618Z,72.80
2017-10-27T17:32:43.528Z,72.90
2017-10-27T17:35:11.460Z,72.70
2017-10-27T17:37:39.385Z,72.70
2017-10-27T17:40:08.025Z,72.30
2017-10-27T17:42:35.876Z,72.20
2017-10-27T17:45:03.788Z,72.40
2017-10-27T17:47:32.536Z,72.30
2017-10-27T17:50:00.404Z,72.20
2017-10-27T17:52:28.396Z,72.10
2017-10-27T17:54:56.292Z,72.00
2017-10-27T17:57:24.994Z,71.50
2017-10-27T17:59:52.892Z,71.50
2017-10-27T18:02:21.023Z,71.30
2017-10-27T18:04:49.688Z,71.10
2017-10-27T18:07:17.533Z,71.00
2017-10-27T18:09:45.647Z,70.90
2017-10-27T18:12:13.608Z,70.00
2017-10-27T18:14:42.491Z,69.80
2017-10-27T18:17:10.539Z,69.80
2017-10-27T18:19:38.467Z,70.50
2017-10-27T18:22:06.662Z,69.50
2017-10-27T18:24:34.612Z,69.60
2017-10-27T18:27:02.554Z,69.50
2017-10-27T18:29:31.229Z,69.10
2017-10-27T18:32:00.009Z,69.10
2017-10-27T18:34:28.803Z,69.00
2017-10-27T18:36:57.618Z,68.90
2017-10-27T18:39:25.514Z,68.80
2017-10-27T18:41:53.404Z,69.30
2017-10-27T18:44:21.275Z,68.60
2017-10-27T18:46:49.971Z,68.00
2017-10-27T18:49:17.928Z,68.00
2017-10-27T18:51:45.753Z,67.70
2017-10-27T18:54:13.621Z,67.50
2017-10-27T18:56:41.452Z,67.40
2017-10-27T18:59:10.052Z,67.40
2017-10-27T19:01:37.933Z,67.30
2017-10-27T19:04:05.954Z,67.20
2017-10-27T19:06:34.577Z,67.00
2017-10-27T19:09:02.492Z,66.90
2017-10-27T19:11:30.354Z,66.80
2017-10-27T19:13:58.218Z,66.90
2017-10-27T19:16:26.117Z,66.70
2017-10-27T19:18:54.876Z,66.80
2017-10-27T19:21:22.709Z,66.70
2017-10-27T19:23:50.569Z,66.60
2017-10-27T19:26:18.405Z,66.70
2017-10-27T19:28:47.009Z,67.00
2017-10-27T19:31:14.911Z,66.90
2017-10-27T19:33:44.176Z,67.30
2017-10-27T19:36:12.223Z,67.40
2017-10-27T19:38:42.233Z,67.70
2017-10-27T19:41:10.909Z,67.80
2017-10-27T19:43:38.748Z,67.70
2017-10-27T19:46:06.627Z,67.80
2017-10-27T19:48:34.494Z,67.80
2017-10-27T19:51:02.538Z,68.00
2017-10-27T19:53:30.493Z,68.00
2017-10-27T19:55:58.332Z,68.20
2017-10-27T19:58:27.115Z,68.50
2017-10-27T20:00:55.828Z,68.40
2017-10-27T20:03:23.815Z,68.40
2017-10-27T20:05:51.863Z,68.30
2017-10-27T20:08:19.984Z,68.40
2017-10-27T20:10:47.916Z,68.50
2017-10-27T20:13:15.821Z,68.60
2017-10-27T20:15:43.660Z,68.60
2017-10-27T20:18:11.555Z,68.60
2017-10-27T20:20:39.430Z,68.60
2017-10-27T20:23:07.324Z,68.40
2017-10-27T20:25:35.957Z,68.40
2017-10-27T20:28:03.820Z,68.40
2017-10-27T20:30:31.669Z,68.30
2017-10-27T20:32:59.551Z,68.40
2017-10-27T20:35:27.475Z,68.30
2017-10-27T20:37:55.376Z,68.20
2017-10-27T20:40:23.235Z,68.30
2017-10-27T20:42:51.100Z,68.10
2017-10-27T20:45:19.041Z,68.30
2017-10-27T20:47:47.728Z,68.50
2017-10-27T20:50:16.388Z,68.40
2017-10-27T20:52:44.352Z,68.40
2017-10-27T20:55:12.209Z,68.30
2017-10-27T20:57:40.057Z,68.30
2017-10-27T21:00:07.994Z,68.10
2017-10-27T21:02:35.903Z,68.00
2017-10-27T21:05:03.890Z,68.00
2017-10-27T21:07:32.628Z,68.00
2017-10-27T21:10:00.521Z,68.00
2017-10-27T21:12:28.473Z,68.60
2017-10-27T21:14:56.469Z,67.90
2017-10-27T21:17:24.312Z,67.80
2017-10-27T21:19:52.740Z,67.70
2017-10-27T21:22:21.570Z,67.80
2017-10-27T21:24:50.302Z,67.80
2017-10-27T21:27:18.239Z,67.80
2017-10-27T21:29:46.101Z,67.50
2017-10-27T21:32:15.168Z,67.30
2017-10-27T21:34:43.577Z,67.30
2017-10-27T21:37:11.462Z,67.30
2017-10-27T21:39:39.354Z,67.30
2017-10-27T21:42:07.357Z,67.30
2017-10-27T21:44:35.307Z,67.30
2017-10-27T21:47:10.537Z,67.20
2017-10-27T21:49:39.239Z,67.20
2017-10-27T21:52:08.373Z,67.40
2017-10-27T21:54:42.176Z,67.30
2017-10-27T21:57:10.874Z,67.30
2017-10-27T21:59:38.853Z,67.20
2017-10-27T22:02:06.762Z,67.30
2017-10-27T22:04:35.393Z,67.20
2017-10-27T22:07:03.261Z,67.20
2017-10-27T22:09:31.118Z,67.10
2017-10-27T22:11:59.033Z,67.10
2017-10-27T22:14:27.743Z,67.00
2017-10-27T22:16:55.614Z,66.90
2017-10-27T22:19:23.660Z,67.10
2017-10-27T22:21:52.442Z,67.00
2017-10-27T22:24:21.084Z,66.90
2017-10-27T22:26:48.979Z,66.90
2017-10-27T22:29:16.896Z,66.80
2017-10-27T22:31:44.777Z,67.70
2017-10-27T22:34:12.756Z,67.80
2017-10-27T22:36:40.646Z,66.80
2017-10-27T22:39:08.527Z,66.60
2017-10-27T22:41:36.382Z,66.60
2017-10-27T22:44:04.258Z,66.90
2017-10-27T22:46:32.844Z,67.30
2017-10-27T22:49:01.623Z,67.60
2017-10-27T22:51:29.551Z,67.40
2017-10-27T22:53:57.413Z,67.30
2017-10-27T22:56:25.440Z,67.40
2017-10-27T22:58:54.226Z,67.40
2017-10-27T23:01:22.834Z,67.20
2017-10-27T23:03:51.314Z,67.20
2017-10-27T23:06:19.344Z,67.10
2017-10-27T23:08:47.185Z,67.10
2017-10-27T23:11:15.130Z,67.10
2017-10-27T23:13:43.005Z,67.00
2017-10-27T23:16:10.887Z,66.90
2017-10-27T23:18:38.905Z,66.80
2017-10-27T23:21:07.595Z,66.60
2017-10-27T23:23:36.225Z,66.50
2017-10-27T23:26:04.128Z,66.50
2017-10-27T23:28:31.944Z,66.50
2017-10-27T23:30:59.792Z,66.50
2017-10-27T23:33:27.643Z,66.50
2017-10-27T23:35:56.237Z,66.30
2017-10-27T23:38:24.075Z,66.30
2017-10-27T23:40:51.922Z,66.00
2017-10-27T23:43:19.749Z,65.90
2017-10-27T23:45:47.600Z,65.70
2017-10-27T23:48:15.459Z,65.40
2017-10-27T23:50:44.080Z,64.70
2017-10-27T23:53:11.921Z,64.70
2017-10-27T23:55:39.787Z,64.80
2017-10-27T23:58:07.685Z,65.00
